Time;durP1;ratioP1;P1;durP2;ratioP2;P2;SDS_P1;SDS_P2;PMS_P1;PMS_P2;Temp;Humidity;BMP_temperature;BMP_pressure;BME280_temperature;BME280_humidity;BME280_pressure;Samples;Min_cycle;Max_cycle;Signal;HPM_P1;HPM_P2
2023/11/29 00:01:12;;;;;;;18.30;14.53;;;-0.20;99.90;;;;;;5080469;28;20507;-59
2023/11/29 00:03:39;;;;;;;19.40;13.50;;;-0.10;99.90;;;;;;5080650;28;20532;-59
2023/11/29 00:06:07;;;;;;;18.70;14.03;;;-0.20;99.90;;;;;;5080914;28;20504;-60
2023/11/29 00:08:35;;;;;;;18.77;14.20;;;-0.20;99.90;;;;;;5079789;28;20491;-59
2023/11/29 00:11:03;;;;;;;18.80;14.50;;;-0.20;99.90;;;;;;5079909;28;20459;-60
2023/11/29 00:13:30;;;;;;;17.00;12.90;;;-0.10;99.90;;;;;;5080349;28;20972;-58
2023/11/29 00:15:57;;;;;;;16.87;13.73;;;-0.10;99.90;;;;;;5080499;28;20553;-60
2023/11/29 00:18:24;;;;;;;15.37;12.63;;;-0.10;99.90;;;;;;5080511;28;20530;-60
2023/11/29 00:20:52;;;;;;;16.80;12.73;;;-0.10;99.90;;;;;;5080436;28;20458;-60
2023/11/29 00:23:19;;;;;;;17.97;12.83;;;-0.10;99.90;;;;;;5080483;28;20514;-60
2023/11/29 00:25:48;;;;;;;16.47;13.30;;;-0.10;99.90;;;;;;5079649;28;20460;-60
2023/11/29 00:28:15;;;;;;;19.07;13.53;;;-0.10;99.90;;;;;;5080593;28;20434;-60
2023/11/29 00:30:42;;;;;;;16.93;12.40;;;-0.10;99.90;;;;;;5079485;28;20562;-60
2023/11/29 00:33:10;;;;;;;16.63;11.97;;;-0.10;99.90;;;;;;5079957;28;20924;-59
2023/11/29 00:35:37;;;;;;;16.63;12.00;;;-0.10;99.90;;;;;;5079861;28;20999;-59
2023/11/29 00:38:04;;;;;;;13.50;10.93;;;-0.10;99.90;;;;;;5079972;28;20902;-60
2023/11/29 00:40:31;;;;;;;14.80;11.47;;;-0.10;99.90;;;;;;5079364;28;20776;-59
2023/11/29 00:43:00;;;;;;;15.10;12.00;;;-0.10;99.90;;;;;;5079617;28;20458;-60
2023/11/29 00:45:27;;;;;;;16.43;11.67;;;-0.10;99.90;;;;;;5079835;28;20550;-58
2023/11/29 00:47:55;;;;;;;14.90;11.07;;;-0.10;99.90;;;;;;5079631;28;20464;-60
2023/11/29 00:50:22;;;;;;;13.40;10.90;;;-0.10;99.90;;;;;;5079906;28;20495;-60
2023/11/29 00:52:49;;;;;;;19.20;11.90;;;-0.10;99.90;;;;;;5079616;28;20464;-60
2023/11/29 00:55:16;;;;;;;15.37;10.43;;;-0.10;99.90;;;;;;5079566;28;20472;-59
2023/11/29 00:57:43;;;;;;;13.30;9.83;;;-0.10;99.90;;;;;;5079325;28;20460;-60
2023/11/29 01:00:13;;;;;;;14.30;10.43;;;-0.10;99.90;;;;;;5079366;28;20460;-59
2023/11/29 01:02:40;;;;;;;14.60;10.07;;;-0.10;99.90;;;;;;5078801;28;20826;-60
2023/11/29 01:05:08;;;;;;;11.07;8.90;;;-0.10;99.90;;;;;;5079179;28;20459;-59
2023/11/29 01:07:36;;;;;;;10.90;9.70;;;-0.10;99.90;;;;;;5079266;28;20490;-61
2023/11/29 01:10:03;;;;;;;12.27;9.07;;;-0.10;99.90;;;;;;5079402;28;20464;-60
2023/11/29 01:12:30;;;;;;;12.90;9.00;;;-0.10;99.90;;;;;;5078911;28;20945;-60
2023/11/29 01:14:57;;;;;;;11.40;9.90;;;-0.20;99.90;;;;;;5078931;28;20565;-60
2023/11/29 01:17:25;;;;;;;11.57;9.20;;;-0.20;99.90;;;;;;5079177;28;20909;-60
2023/11/29 01:19:54;;;;;;;12.20;9.77;;;-0.20;99.90;;;;;;5079151;28;20461;-60
2023/11/29 01:22:21;;;;;;;11.93;9.47;;;-0.20;99.90;;;;;;5079175;28;20465;-60
2023/11/29 01:24:48;;;;;;;14.00;10.20;;;-0.20;99.90;;;;;;5078885;28;20561;-60
2023/11/29 01:27:15;;;;;;;12.20;9.87;;;-0.10;99.90;;;;;;5078937;28;20460;-59
2023/11/29 01:29:42;;;;;;;14.60;9.50;;;-0.10;99.90;;;;;;5078959;28;20442;-60
2023/11/29 01:32:09;;;;;;;12.60;9.47;;;-0.10;99.90;;;;;;5079305;28;20465;-59
2023/11/29 01:34:41;;;;;;;13.77;9.67;;;-0.20;99.90;;;;;;5078529;28;20464;-59
2023/11/29 01:37:08;;;;;;;13.23;10.67;;;-0.10;99.90;;;;;;5077097;28;20488;-61
2023/11/29 01:39:35;;;;;;;11.63;9.30;;;-0.10;99.90;;;;;;5078340;28;20471;-60
2023/11/29 01:42:03;;;;;;;12.77;9.70;;;-0.10;99.90;;;;;;5078550;28;20561;-59
2023/11/29 01:44:30;;;;;;;12.47;9.93;;;-0.10;99.90;;;;;;5078327;28;20457;-60
2023/11/29 01:46:57;;;;;;;12.77;10.50;;;-0.10;99.90;;;;;;5077498;28;20459;-59
2023/11/29 01:49:25;;;;;;;14.20;9.13;;;-0.10;99.90;;;;;;5078504;28;20464;-60
2023/11/29 01:51:53;;;;;;;11.70;9.90;;;-0.10;99.90;;;;;;5078621;28;20517;-60
2023/11/29 01:54:21;;;;;;;10.90;8.77;;;-0.10;99.90;;;;;;5078684;28;20511;-60
2023/11/29 01:56:48;;;;;;;14.23;10.17;;;-0.10;99.90;;;;;;5077645;28;20493;-59
2023/11/29 01:59:15;;;;;;;11.70;9.70;;;-0.10;99.90;;;;;;5078414;28;20551;-60
2023/11/29 02:01:43;;;;;;;11.00;8.77;;;-0.10;99.90;;;;;;5077966;28;20469;-60
2023/11/29 02:04:10;;;;;;;13.67;9.87;;;0.00;99.90;;;;;;5078099;28;20464;-60
2023/11/29 02:06:38;;;;;;;13.30;10.27;;;0.00;99.90;;;;;;5077176;28;20457;-59
2023/11/29 02:09:06;;;;;;;14.27;10.30;;;-0.10;99.90;;;;;;5077980;28;20459;-60
2023/11/29 02:11:39;;;;;;;11.00;9.27;;;0.00;99.90;;;;;;5077497;28;20555;-60
2023/11/29 02:14:06;;;;;;;13.50;9.93;;;-0.10;99.90;;;;;;5076763;28;20536;-59
2023/11/29 02:16:34;;;;;;;13.70;10.50;;;-0.10;99.90;;;;;;5077703;28;20503;-60
2023/11/29 02:19:01;;;;;;;10.80;8.93;;;-0.10;99.90;;;;;;5077534;28;20479;-60
2023/11/29 02:21:29;;;;;;;14.00;10.10;;;-0.10;99.90;;;;;;5077889;28;20494;-60
2023/11/29 02:24:01;;;;;;;17.00;11.00;;;0.00;99.90;;;;;;5077841;28;20456;-60
2023/11/29 02:26:30;;;;;;;16.50;10.97;;;0.00;99.90;;;;;;5077897;28;20424;-60
2023/11/29 02:28:57;;;;;;;13.00;10.20;;;0.00;99.90;;;;;;5077658;28;20559;-59
2023/11/29 02:31:25;;;;;;;14.10;10.20;;;0.00;99.90;;;;;;5077561;28;20469;-59
2023/11/29 02:33:52;;;;;;;13.33;10.87;;;0.00;99.90;;;;;;5077230;28;20465;-60
2023/11/29 02:36:19;;;;;;;14.77;10.17;;;0.00;99.90;;;;;;5077539;28;20492;-59
2023/11/29 02:38:46;;;;;;;13.80;11.10;;;0.00;99.90;;;;;;5077463;28;20903;-59
2023/11/29 02:41:13;;;;;;;14.10;10.00;;;0.00;99.90;;;;;;5077314;28;20559;-60
2023/11/29 02:43:42;;;;;;;12.03;9.70;;;0.00;99.90;;;;;;5077771;28;20723;-59
2023/11/29 02:46:09;;;;;;;12.23;10.00;;;0.00;99.90;;;;;;5077563;28;20450;-60
2023/11/29 02:48:36;;;;;;;13.33;10.40;;;0.00;99.90;;;;;;5077386;28;20465;-60
2023/11/29 02:51:04;;;;;;;12.97;9.70;;;0.00;99.90;;;;;;5077119;28;20468;-60
2023/11/29 02:53:31;;;;;;;13.87;10.90;;;0.00;99.90;;;;;;5077281;28;20630;-59
2023/11/29 02:55:58;;;;;;;13.67;10.83;;;0.00;99.90;;;;;;5077331;28;20488;-60
2023/11/29 02:58:25;;;;;;;14.10;10.63;;;0.10;99.90;;;;;;5077747;28;20762;-59
2023/11/29 03:00:54;;;;;;;13.87;10.47;;;0.10;99.90;;;;;;5077570;28;20728;-59
2023/11/29 03:03:21;;;;;;;14.10;10.40;;;0.10;99.90;;;;;;5077396;28;20553;-60
2023/11/29 03:05:49;;;;;;;13.33;9.93;;;0.10;99.90;;;;;;5077396;28;20475;-60
2023/11/29 03:08:18;;;;;;;12.43;9.93;;;0.10;99.90;;;;;;5076875;28;21017;-60
2023/11/29 03:10:45;;;;;;;14.40;11.70;;;0.10;99.90;;;;;;5077090;28;20880;-60
2023/11/29 03:13:13;;;;;;;15.43;11.67;;;0.10;99.90;;;;;;5076976;28;20508;-60
2023/11/29 03:15:40;;;;;;;13.47;11.60;;;0.10;99.90;;;;;;5077238;28;20503;-60
2023/11/29 03:18:09;;;;;;;13.67;10.33;;;0.10;99.90;;;;;;5077479;28;20468;-60
2023/11/29 03:20:36;;;;;;;15.17;11.00;;;0.10;99.90;;;;;;5076589;28;20456;-60
2023/11/29 03:23:03;;;;;;;12.90;10.07;;;0.20;99.90;;;;;;5076961;28;20903;-60
2023/11/29 03:25:30;;;;;;;17.37;12.93;;;0.20;99.90;;;;;;5077737;28;20467;-59
2023/11/29 03:27:58;;;;;;;14.90;11.97;;;0.20;99.90;;;;;;5081755;28;20471;-59
2023/11/29 03:30:25;;;;;;;16.23;11.10;;;0.20;99.90;;;;;;5081315;28;20457;-59
2023/11/29 03:32:52;;;;;;;18.83;12.23;;;0.20;99.90;;;;;;5081100;28;20764;-60
2023/11/29 03:35:21;;;;;;;15.80;12.40;;;0.30;99.90;;;;;;5080897;28;20464;-60
2023/11/29 03:37:48;;;;;;;14.73;11.93;;;0.30;99.90;;;;;;5081241;28;20457;-60
2023/11/29 03:40:15;;;;;;;14.80;11.33;;;0.30;99.90;;;;;;5080963;28;20446;-60
2023/11/29 03:42:42;;;;;;;17.20;12.20;;;0.30;99.90;;;;;;5080634;28;20770;-59
2023/11/29 03:45:10;;;;;;;14.27;11.20;;;0.30;99.90;;;;;;5080504;28;20442;-60
2023/11/29 03:47:37;;;;;;;16.07;12.07;;;0.30;99.90;;;;;;5081031;28;20712;-59
2023/11/29 03:50:05;;;;;;;15.97;11.13;;;0.30;99.90;;;;;;5080844;28;20758;-60
2023/11/29 03:52:34;;;;;;;18.10;11.53;;;0.30;99.90;;;;;;5080397;28;20758;-60
2023/11/29 03:55:01;;;;;;;18.57;11.67;;;0.30;99.90;;;;;;5080568;28;20874;-60
2023/11/29 03:57:28;;;;;;;14.10;10.70;;;0.40;99.90;;;;;;5080310;28;20499;-60
2023/11/29 03:59:55;;;;;;;15.03;11.50;;;0.30;99.90;;;;;;5080899;28;20462;-59
2023/11/29 04:02:22;;;;;;;16.30;13.40;;;0.40;99.90;;;;;;5080737;28;20559;-60
2023/11/29 04:04:50;;;;;;;15.47;12.53;;;0.40;99.90;;;;;;5080012;28;20557;-60
2023/11/29 04:07:17;;;;;;;15.43;12.17;;;0.40;99.90;;;;;;5079882;28;20484;-60
2023/11/29 04:09:45;;;;;;;17.43;12.33;;;0.40;99.90;;;;;;5080560;28;20558;-60
2023/11/29 04:12:13;;;;;;;17.87;12.53;;;0.40;99.90;;;;;;5080422;28;20566;-60
2023/11/29 04:14:41;;;;;;;15.97;11.20;;;0.40;99.90;;;;;;5080054;28;20803;-59
2023/11/29 04:17:08;;;;;;;16.83;12.30;;;0.40;99.90;;;;;;5079975;28;20990;-60
2023/11/29 04:19:35;;;;;;;16.33;12.33;;;0.50;99.90;;;;;;5080135;28;20461;-60
2023/11/29 04:22:03;;;;;;;15.07;12.53;;;0.50;99.90;;;;;;5080374;28;20507;-59
2023/11/29 04:24:30;;;;;;;15.40;12.07;;;0.50;99.90;;;;;;5079918;28;20463;-59
2023/11/29 04:26:59;;;;;;;17.03;12.83;;;0.50;99.90;;;;;;5079904;28;20456;-59
2023/11/29 04:29:26;;;;;;;21.13;13.13;;;0.50;99.90;;;;;;5079907;28;20464;-59
2023/11/29 04:31:53;;;;;;;19.30;12.97;;;0.50;99.90;;;;;;5080250;28;20464;-59
2023/11/29 04:34:21;;;;;;;17.60;13.73;;;0.50;99.90;;;;;;5079975;28;20460;-59
2023/11/29 04:36:48;;;;;;;19.97;14.00;;;0.50;99.90;;;;;;5078915;28;20492;-60
2023/11/29 04:39:15;;;;;;;18.90;14.00;;;0.50;99.90;;;;;;5079373;28;20460;-59
2023/11/29 04:41:43;;;;;;;19.70;12.73;;;0.50;99.90;;;;;;5079800;28;20507;-59
2023/11/29 04:44:12;;;;;;;18.20;13.00;;;0.50;99.90;;;;;;5080017;28;20747;-59
2023/11/29 04:46:39;;;;;;;18.67;13.73;;;0.50;99.90;;;;;;5079230;28;20463;-59
2023/11/29 04:49:07;;;;;;;23.87;14.63;;;0.50;99.90;;;;;;5079526;28;20773;-57
2023/11/29 04:51:34;;;;;;;18.23;13.93;;;0.40;99.90;;;;;;5079347;28;20466;-59
2023/11/29 04:54:01;;;;;;;21.40;16.07;;;0.50;99.90;;;;;;5079902;28;20464;-58
2023/11/29 04:56:28;;;;;;;19.10;14.10;;;0.50;99.90;;;;;;5079641;28;20493;-55
2023/11/29 04:58:56;;;;;;;18.50;13.73;;;0.40;99.90;;;;;;5062802;28;20461;-56
2023/11/29 05:01:24;;;;;;;20.07;14.83;;;0.50;99.90;;;;;;5059410;28;20439;-54
2023/11/29 05:03:51;;;;;;;20.90;14.97;;;0.50;99.90;;;;;;5059441;28;20450;-58
2023/11/29 05:06:20;;;;;;;19.80;14.67;;;0.40;99.90;;;;;;5059593;28;20458;-55
2023/11/29 05:08:47;;;;;;;20.33;14.40;;;0.40;99.90;;;;;;5058892;28;20518;-52
2023/11/29 05:11:14;;;;;;;20.90;14.30;;;0.40;99.90;;;;;;5058892;28;20490;-55
2023/11/29 05:13:41;;;;;;;20.97;15.50;;;0.50;99.90;;;;;;5059608;28;20468;-52
2023/11/29 05:16:09;;;;;;;17.33;13.70;;;0.40;99.90;;;;;;5059611;28;20465;-53
2023/11/29 05:18:38;;;;;;;17.23;13.47;;;0.40;99.90;;;;;;5058868;28;20457;-53
2023/11/29 05:21:06;;;;;;;19.83;14.20;;;0.40;99.90;;;;;;5059645;28;20458;-53
2023/11/29 05:23:33;;;;;;;17.50;13.30;;;0.50;99.90;;;;;;5059201;28;20484;-53
2023/11/29 05:26:00;;;;;;;15.13;12.47;;;0.50;99.90;;;;;;5059638;28;20465;-53
2023/11/29 05:28:27;;;;;;;17.50;12.97;;;0.50;99.90;;;;;;5059383;28;20883;-54
2023/11/29 05:30:55;;;;;;;19.60;13.07;;;0.50;99.90;;;;;;5059406;28;20479;-56
2023/11/29 05:33:23;;;;;;;18.60;13.00;;;0.50;99.90;;;;;;5058732;28;20466;-53
2023/11/29 05:35:53;;;;;;;19.03;13.90;;;0.60;99.90;;;;;;5058904;28;20501;-51
2023/11/29 05:38:20;;;;;;;14.43;12.47;;;0.60;99.90;;;;;;5058726;28;20960;-52
2023/11/29 05:40:47;;;;;;;21.17;14.67;;;0.60;99.90;;;;;;5058998;28;20734;-52
2023/11/29 05:43:14;;;;;;;19.93;15.87;;;0.60;99.90;;;;;;5058814;28;20536;-58
2023/11/29 05:45:41;;;;;;;21.80;16.13;;;0.70;99.90;;;;;;5058653;28;20843;-55
2023/11/29 05:48:08;;;;;;;19.60;14.77;;;0.70;99.90;;;;;;5059013;28;20464;-57
2023/11/29 05:50:36;;;;;;;21.10;15.73;;;0.70;99.90;;;;;;5056978;28;20458;-57
2023/11/29 05:53:05;;;;;;;23.13;16.13;;;0.70;99.90;;;;;;5058293;28;20461;-52
2023/11/29 05:55:34;;;;;;;26.37;17.60;;;0.80;99.90;;;;;;5058396;28;20527;-52
2023/11/29 05:58:03;;;;;;;25.23;18.23;;;0.80;99.90;;;;;;5058448;28;20807;-55
2023/11/29 06:00:30;;;;;;;22.27;17.50;;;0.80;99.90;;;;;;5066885;28;20787;-54
2023/11/29 06:02:58;;;;;;;23.80;18.47;;;0.80;99.90;;;;;;5077893;28;20894;-54
2023/11/29 06:05:27;;;;;;;24.27;17.97;;;0.80;99.90;;;;;;5076822;28;20531;-56
2023/11/29 06:07:54;;;;;;;23.47;18.53;;;0.90;99.90;;;;;;5076251;28;20784;-56
2023/11/29 06:10:22;;;;;;;26.80;18.20;;;0.90;99.90;;;;;;5076033;28;20453;-57
2023/11/29 06:12:50;;;;;;;27.83;19.00;;;0.90;99.90;;;;;;5065705;28;20484;-57
2023/11/29 06:15:18;;;;;;;29.53;19.10;;;1.00;99.90;;;;;;5076787;28;20798;-56
2023/11/29 06:17:45;;;;;;;25.77;18.27;;;1.00;99.90;;;;;;5075546;28;20576;-57
2023/11/29 06:20:13;;;;;;;26.27;18.10;;;1.00;99.90;;;;;;5077388;28;20436;-56
2023/11/29 06:22:40;;;;;;;29.17;19.30;;;1.10;99.90;;;;;;5077015;28;20538;-55
2023/11/29 06:25:08;;;;;;;26.63;18.50;;;1.10;99.90;;;;;;5075323;28;20758;-56
2023/11/29 06:27:37;;;;;;;23.37;17.97;;;1.20;99.90;;;;;;5075333;28;20451;-57
2023/11/29 06:30:05;;;;;;;26.13;19.10;;;1.20;99.90;;;;;;5076030;28;20761;-57
2023/11/29 06:32:32;;;;;;;26.27;19.20;;;1.20;99.90;;;;;;5075897;28;20453;-58
2023/11/29 06:34:59;;;;;;;25.97;18.13;;;1.20;99.90;;;;;;5075485;28;20457;-58
2023/11/29 06:37:27;;;;;;;25.77;18.37;;;1.30;99.90;;;;;;5074577;28;20926;-60
2023/11/29 06:39:54;;;;;;;28.80;18.70;;;1.30;99.90;;;;;;5076031;28;20458;-63
2023/11/29 06:42:21;;;;;;;23.60;17.23;;;1.30;99.90;;;;;;5076248;28;20461;-63
2023/11/29 06:44:52;;;;;;;25.27;17.40;;;1.30;99.90;;;;;;5076714;28;20560;-62
2023/11/29 06:47:19;;;;;;;24.93;17.10;;;1.20;99.90;;;;;;5077218;28;20456;-62
2023/11/29 06:49:46;;;;;;;24.33;17.47;;;1.30;99.90;;;;;;5077590;28;20462;-62
2023/11/29 06:52:14;;;;;;;23.93;18.20;;;1.30;99.90;;;;;;5078140;28;20568;-62
2023/11/29 06:54:41;;;;;;;24.10;17.70;;;1.30;99.90;;;;;;5077534;28;20485;-62
2023/11/29 06:57:08;;;;;;;25.53;17.90;;;1.30;99.90;;;;;;5078551;28;20496;-61
2023/11/29 06:59:35;;;;;;;26.87;19.20;;;1.30;99.90;;;;;;5077197;28;20465;-61
2023/11/29 07:02:04;;;;;;;26.20;19.10;;;1.30;99.90;;;;;;5078720;28;20905;-61
2023/11/29 07:04:32;;;;;;;28.70;18.63;;;1.30;99.90;;;;;;5078729;28;20440;-62
2023/11/29 07:07:00;;;;;;;25.70;18.80;;;1.30;99.90;;;;;;5082974;28;20482;-62
2023/11/29 07:09:28;;;;;;;22.60;17.30;;;1.30;99.90;;;;;;5067005;28;20475;-61
2023/11/29 07:11:56;;;;;;;23.97;16.80;;;1.30;99.90;;;;;;5067390;28;20500;-60
2023/11/29 07:14:24;;;;;;;22.17;15.70;;;1.30;99.90;;;;;;5066106;28;20463;-62
2023/11/29 07:16:52;;;;;;;25.00;16.97;;;1.40;99.90;;;;;;5066546;28;20497;-61
2023/11/29 07:19:21;;;;;;;23.83;16.93;;;1.30;99.90;;;;;;5073408;28;20465;-62
2023/11/29 07:21:48;;;;;;;22.40;16.87;;;1.40;99.90;;;;;;5089067;28;20460;-62
2023/11/29 07:24:15;;;;;;;22.50;17.07;;;1.40;99.90;;;;;;5088821;28;20457;-62
2023/11/29 07:26:42;;;;;;;21.87;16.80;;;1.40;99.90;;;;;;5088922;28;20466;-63
2023/11/29 07:29:10;;;;;;;20.27;15.03;;;1.30;99.90;;;;;;5085467;28;20510;-63
2023/11/29 07:31:37;;;;;;;19.80;16.60;;;1.40;99.90;;;;;;5084122;28;20470;-62
2023/11/29 07:34:04;;;;;;;19.30;16.10;;;1.40;99.90;;;;;;5080079;28;20548;-63
2023/11/29 07:36:33;;;;;;;19.40;14.50;;;1.40;99.90;;;;;;5077771;28;20457;-62
2023/11/29 07:39:00;;;;;;;18.40;14.50;;;1.30;99.90;;;;;;5077080;28;20496;-63
2023/11/29 07:41:27;;;;;;;19.13;14.30;;;1.30;99.90;;;;;;5076832;28;20972;-63
2023/11/29 07:43:54;;;;;;;19.73;14.67;;;1.40;99.90;;;;;;5076736;28;20544;-63
2023/11/29 07:46:21;;;;;;;17.70;14.63;;;1.40;99.90;;;;;;5075771;28;20860;-63
2023/11/29 07:48:49;;;;;;;17.57;15.07;;;1.40;99.90;;;;;;5075771;28;20758;-63
2023/11/29 07:51:16;;;;;;;22.27;14.43;;;1.40;99.90;;;;;;5076212;28;20457;-63
2023/11/29 07:53:45;;;;;;;20.33;14.30;;;1.40;99.90;;;;;;5076461;28;20821;-64
2023/11/29 07:56:13;;;;;;;19.53;15.00;;;1.40;99.90;;;;;;5076606;28;20882;-64
2023/11/29 07:58:40;;;;;;;21.80;14.53;;;1.40;99.90;;;;;;5076208;28;20887;-64
2023/11/29 08:01:07;;;;;;;17.70;14.50;;;1.40;99.90;;;;;;5076314;28;20435;-64
2023/11/29 08:03:35;;;;;;;17.40;13.50;;;1.40;99.90;;;;;;5077037;28;20465;-65
2023/11/29 08:06:03;;;;;;;17.50;14.93;;;1.40;99.90;;;;;;5076787;28;20555;-65
2023/11/29 08:08:31;;;;;;;20.13;13.97;;;1.50;99.90;;;;;;5076082;28;20480;-64
2023/11/29 08:11:00;;;;;;;16.33;13.27;;;1.40;99.90;;;;;;5076276;28;20497;-62
2023/11/29 08:13:28;;;;;;;17.60;13.40;;;1.40;99.90;;;;;;5078505;28;20584;-62
2023/11/29 08:15:56;;;;;;;17.07;13.73;;;1.40;99.90;;;;;;5079868;28;20516;-63
2023/11/29 08:18:26;;;;;;;16.10;13.00;;;1.40;99.90;;;;;;5080220;28;20490;-63
2023/11/29 08:20:53;;;;;;;14.43;12.50;;;1.50;99.90;;;;;;5080571;28;20648;-62
2023/11/29 08:23:21;;;;;;;15.57;13.30;;;1.50;99.90;;;;;;5080032;28;20947;-62
2023/11/29 08:25:48;;;;;;;17.47;14.57;;;1.50;99.90;;;;;;5080498;28;20742;-61
2023/11/29 08:28:18;;;;;;;17.90;15.70;;;1.50;99.90;;;;;;5080205;28;20721;-62
2023/11/29 08:30:45;;;;;;;19.13;14.47;;;1.50;99.90;;;;;;5079772;28;20465;-64
2023/11/29 08:33:13;;;;;;;16.50;14.67;;;1.50;99.90;;;;;;5079861;28;20798;-65
2023/11/29 08:35:41;;;;;;;17.80;14.40;;;1.40;99.90;;;;;;5080356;28;20479;-65
2023/11/29 08:38:08;;;;;;;18.23;14.37;;;1.40;99.90;;;;;;5080484;28;20580;-67
2023/11/29 08:40:36;;;;;;;17.50;14.60;;;1.40;99.90;;;;;;5079581;28;20856;-66
2023/11/29 08:43:05;;;;;;;18.50;14.20;;;1.40;99.90;;;;;;5079751;28;20428;-67
2023/11/29 08:45:34;;;;;;;17.43;14.53;;;1.50;99.90;;;;;;5079187;28;20457;-67
2023/11/29 08:48:02;;;;;;;16.40;14.30;;;1.40;99.90;;;;;;5078952;28;20453;-65
2023/11/29 08:50:29;;;;;;;16.53;14.67;;;1.50;99.90;;;;;;5078905;28;20459;-67
2023/11/29 08:52:57;;;;;;;17.97;14.97;;;1.50;99.90;;;;;;5079639;28;20936;-64
2023/11/29 08:55:24;;;;;;;16.67;13.93;;;1.50;99.90;;;;;;5080212;28;20462;-63
2023/11/29 08:57:53;;;;;;;19.73;15.37;;;1.50;99.90;;;;;;5080452;28;20483;-63
2023/11/29 09:00:21;;;;;;;18.67;14.87;;;1.50;99.90;;;;;;5080678;28;20460;-64
2023/11/29 09:02:52;;;;;;;24.23;15.80;;;1.50;99.90;;;;;;5079479;28;20464;-63
2023/11/29 09:05:22;;;;;;;20.10;15.60;;;1.50;99.90;;;;;;5079956;28;20891;-62
2023/11/29 09:07:50;;;;;;;20.80;16.20;;;1.50;99.90;;;;;;5079374;28;20482;-63
2023/11/29 09:10:17;;;;;;;18.13;14.30;;;1.50;99.90;;;;;;5079933;28;20538;-63
2023/11/29 09:12:45;;;;;;;20.47;15.27;;;1.60;99.90;;;;;;5079662;28;20460;-63
2023/11/29 09:15:12;;;;;;;18.50;14.83;;;1.60;99.90;;;;;;5079866;28;20480;-63
2023/11/29 09:17:44;;;;;;;17.87;15.40;;;1.60;99.90;;;;;;5078972;28;20512;-62
2023/11/29 09:20:13;;;;;;;17.27;13.50;;;1.60;99.90;;;;;;5079449;28;20469;-62
2023/11/29 09:22:41;;;;;;;16.63;14.07;;;1.70;99.90;;;;;;5079140;28;20473;-62
2023/11/29 09:25:10;;;;;;;20.73;14.33;;;1.70;99.90;;;;;;5078815;28;20571;-62
2023/11/29 09:27:38;;;;;;;16.80;14.20;;;1.70;99.90;;;;;;5079014;28;20461;-61
2023/11/29 09:30:06;;;;;;;17.83;15.37;;;1.70;99.90;;;;;;5079346;28;20551;-61
2023/11/29 09:32:35;;;;;;;21.77;14.10;;;1.70;99.90;;;;;;5078918;28;20864;-61
2023/11/29 09:35:04;;;;;;;17.77;15.00;;;1.80;99.90;;;;;;5078956;28;20457;-60
2023/11/29 09:37:32;;;;;;;16.47;14.10;;;1.80;99.90;;;;;;5079004;28;20918;-60
2023/11/29 09:40:00;;;;;;;20.07;14.23;;;1.80;99.90;;;;;;5078816;28;20463;-60
2023/11/29 09:42:29;;;;;;;15.80;13.70;;;1.80;99.90;;;;;;5078660;28;20894;-60
2023/11/29 09:44:58;;;;;;;16.50;14.13;;;1.80;99.90;;;;;;5078673;28;20464;-60
2023/11/29 09:47:26;;;;;;;16.47;14.03;;;1.80;99.90;;;;;;5078554;28;20860;-61
2023/11/29 09:49:54;;;;;;;19.30;13.30;;;1.80;99.90;;;;;;5078637;28;20737;-61
2023/11/29 09:52:23;;;;;;;16.37;12.83;;;1.80;99.90;;;;;;5078734;28;20843;-62
2023/11/29 09:54:52;;;;;;;14.50;12.63;;;1.80;99.90;;;;;;5078520;28;20781;-62
2023/11/29 09:57:20;;;;;;;16.37;12.80;;;1.80;99.90;;;;;;5078278;28;20922;-61
2023/11/29 09:59:50;;;;;;;15.30;12.60;;;1.80;99.90;;;;;;5078547;28;20428;-62
2023/11/29 10:02:21;;;;;;;14.80;12.73;;;1.80;99.90;;;;;;5078386;28;20466;-61
2023/11/29 10:04:49;;;;;;;14.97;11.73;;;1.80;99.90;;;;;;5077891;28;20473;-61
2023/11/29 10:07:17;;;;;;;15.00;13.07;;;1.80;99.90;;;;;;5077678;28;20489;-61
2023/11/29 10:09:44;;;;;;;19.80;13.33;;;1.80;99.90;;;;;;5078100;28;20450;-61
2023/11/29 10:12:13;;;;;;;13.10;11.70;;;1.80;99.90;;;;;;5078355;28;20453;-61
2023/11/29 10:14:40;;;;;;;17.73;12.70;;;1.80;99.90;;;;;;5077816;28;20811;-61
2023/11/29 10:17:12;;;;;;;13.97;10.63;;;1.70;99.90;;;;;;5077828;28;20499;-61
2023/11/29 10:19:40;;;;;;;15.30;12.03;;;1.80;99.90;;;;;;5078087;28;20496;-61
2023/11/29 10:22:08;;;;;;;11.80;10.57;;;1.80;99.90;;;;;;5078035;28;20491;-61
2023/11/29 10:24:36;;;;;;;12.30;10.13;;;1.80;99.90;;;;;;5077633;28;20461;-61
2023/11/29 10:27:03;;;;;;;10.90;9.80;;;1.80;99.90;;;;;;5077884;28;20458;-61
2023/11/29 10:29:33;;;;;;;11.33;10.00;;;1.70;99.90;;;;;;5077634;28;20453;-62
2023/11/29 10:32:02;;;;;;;11.53;9.20;;;1.70;99.90;;;;;;5077807;28;20793;-62
2023/11/29 10:34:30;;;;;;;13.23;10.30;;;1.80;99.90;;;;;;5077572;28;20485;-61
2023/11/29 10:36:58;;;;;;;10.80;9.70;;;1.80;99.90;;;;;;5075485;28;20508;-61
2023/11/29 10:39:28;;;;;;;12.60;10.50;;;1.80;99.90;;;;;;5075179;28;20571;-62
2023/11/29 10:41:58;;;;;;;10.93;9.73;;;1.80;99.90;;;;;;5076001;28;20546;-62
2023/11/29 10:44:31;;;;;;;11.60;10.27;;;1.80;99.90;;;;;;5075976;28;20491;-63
2023/11/29 10:47:08;;;;;;;11.37;10.10;;;1.80;99.90;;;;;;5076757;28;20468;-62
2023/11/29 10:49:44;;;;;;;12.67;10.10;;;1.80;99.90;;;;;;5076521;28;20874;-62
2023/11/29 10:52:11;;;;;;;12.43;9.60;;;1.80;99.90;;;;;;5077506;28;20489;-61
2023/11/29 10:54:39;;;;;;;11.83;10.63;;;1.80;99.90;;;;;;5077537;28;20480;-62
2023/11/29 10:57:07;;;;;;;11.50;9.20;;;1.80;99.90;;;;;;5075733;28;20889;-62
2023/11/29 10:59:39;;;;;;;13.07;10.97;;;1.90;99.90;;;;;;5056197;28;20492;-62
2023/11/29 11:02:07;;;;;;;13.13;11.27;;;1.90;99.90;;;;;;5056452;28;20830;-62
2023/11/29 11:04:35;;;;;;;12.27;10.97;;;1.90;99.90;;;;;;5072302;28;20493;-62
2023/11/29 11:07:03;;;;;;;12.20;11.00;;;2.00;99.90;;;;;;5075617;28;20486;-62
2023/11/29 11:09:37;;;;;;;12.33;11.10;;;2.00;99.90;;;;;;5075812;28;20464;-62
2023/11/29 11:12:06;;;;;;;18.30;12.50;;;2.00;99.90;;;;;;5076461;28;20941;-61
2023/11/29 11:14:47;;;;;;;14.00;11.30;;;2.00;99.90;;;;;;5077326;28;20909;-62
2023/11/29 11:17:14;;;;;;;14.20;11.40;;;2.10;99.90;;;;;;5077161;28;20456;-62
2023/11/29 11:19:43;;;;;;;13.60;10.80;;;2.00;99.90;;;;;;5076653;28;20489;-62
2023/11/29 11:22:12;;;;;;;12.13;10.33;;;2.00;99.90;;;;;;5076886;28;20894;-65
2023/11/29 11:25:04;;;;;;;14.43;11.77;;;2.10;99.90;;;;;;5076923;28;20467;-63
2023/11/29 11:27:33;;;;;;;16.03;11.73;;;2.10;99.90;;;;;;5076705;28;20934;-63
2023/11/29 11:30:18;;;;;;;12.90;11.50;;;2.20;99.90;;;;;;5075864;28;20639;-64
2023/11/29 11:32:49;;;;;;;13.30;11.90;;;2.20;99.90;;;;;;5072993;28;20461;-63
2023/11/29 11:35:24;;;;;;;14.87;13.37;;;2.30;99.90;;;;;;5076143;28;20556;-64
2023/11/29 11:37:54;;;;;;;13.77;12.27;;;2.30;99.90;;;;;;5075240;28;20555;-63
2023/11/29 11:40:23;;;;;;;14.07;12.50;;;2.30;99.90;;;;;;5075317;28;20449;-62
2023/11/29 11:42:51;;;;;;;14.87;13.20;;;2.40;99.90;;;;;;5075533;28;20457;-63
2023/11/29 11:45:21;;;;;;;16.70;14.27;;;2.40;99.90;;;;;;5075351;28;20549;-63
2023/11/29 11:47:49;;;;;;;14.43;12.97;;;2.40;99.90;;;;;;5078386;28;20457;-62
2023/11/29 11:50:17;;;;;;;17.33;12.97;;;2.40;99.90;;;;;;5079637;28;20473;-63
2023/11/29 11:52:45;;;;;;;15.30;12.87;;;2.40;99.90;;;;;;5067621;28;20461;-61
2023/11/29 11:55:13;;;;;;;19.77;14.17;;;2.50;99.90;;;;;;5076610;28;20472;-62
2023/11/29 11:57:43;;;;;;;18.67;14.07;;;2.50;99.90;;;;;;5079338;28;20803;-61
2023/11/29 12:00:12;;;;;;;15.37;13.77;;;2.50;99.90;;;;;;5078587;28;20581;-62
2023/11/29 12:02:41;;;;;;;14.27;12.77;;;2.60;99.90;;;;;;5079693;28;20496;-62
2023/11/29 12:05:09;;;;;;;14.20;12.70;;;2.50;99.90;;;;;;5079570;28;20547;-62
2023/11/29 12:07:40;;;;;;;16.90;12.50;;;2.50;99.90;;;;;;5078232;28;20554;-61
2023/11/29 12:10:10;;;;;;;14.37;12.87;;;2.50;99.90;;;;;;5074329;28;20489;-61
2023/11/29 12:12:38;;;;;;;13.67;12.00;;;2.40;99.90;;;;;;5059201;28;20909;-61
2023/11/29 12:15:06;;;;;;;17.17;13.47;;;2.40;99.90;;;;;;5057515;28;20461;-61
2023/11/29 12:17:35;;;;;;;13.60;12.30;;;2.40;99.90;;;;;;5056370;28;20458;-61
2023/11/29 12:20:05;;;;;;;15.10;13.50;;;2.50;99.90;;;;;;5056589;28;20596;-61
2023/11/29 12:22:33;;;;;;;14.93;11.83;;;2.50;99.90;;;;;;5056285;28;20619;-62
2023/11/29 12:25:01;;;;;;;13.80;11.13;;;2.50;99.90;;;;;;5056072;28;20462;-61
2023/11/29 12:27:29;;;;;;;11.30;9.97;;;2.40;99.90;;;;;;5057216;28;20548;-60
2023/11/29 12:30:00;;;;;;;14.90;9.37;;;2.40;99.90;;;;;;5058120;28;20476;-61
2023/11/29 12:32:29;;;;;;;10.47;9.37;;;2.40;99.90;;;;;;5058844;28;20458;-60
2023/11/29 12:34:57;;;;;;;11.63;9.40;;;2.40;99.90;;;;;;5057339;28;20465;-60
2023/11/29 12:37:27;;;;;;;10.97;9.70;;;2.40;99.90;;;;;;5057743;28;20469;-61
2023/11/29 12:39:56;;;;;;;11.67;10.33;;;2.70;99.90;;;;;;5058461;28;20457;-60